Weather at Detroit Metropolitan Wayne County Airport

Public forecast

Using degrees Fahrenheit for public forecast. Weather courtesy of forecast.io.

Current aviation weather report (METAR) for Detroit Metropolitan Wayne County Airport

Retrieved 2021/07/29 07:53 UTC (1 hour ago):

KDTW 290753Z 21009KT 6SM BR FEW045 BKN065 OVC150 23/22 A2991 RMK AO2 SLP121 T02330222

Aviation forecast (TAF) for Detroit Metropolitan Wayne County Airport

Retrieved 2021/07/29 06:34 UTC (2 hours ago):

TAF KDTW 290532Z 2906/3012 16005KT 6SM BR SCT040 BKN060 OVC200 FM290900 21007KT 5SM -SHRA BKN035 OVC050 TEMPO 2909/2911 30015G25KT 3SM -TSRA OVC015CB FM291200 28014KT 5SM -RA BKN025 OVC040 FM291500 26010KT P6SM -SHRA SCT025 BKN035 BKN100 FM291900 33011KT P6SM SCT045 FM300000 34007KT P6SM BKN040